SNH weather

Stanthorpe Airport
Queensland, Australia

Public forecast

Using degrees Celsius for public forecast. Weather courtesy of forecast.io.

Closest aviation weather report (METAR) to Stanthorpe Airport

Closest report is Casino Airport, 58.8 nm (108.9 km) ESE. Retrieved 2020/02/21 06:00 UTC (54 minutes ago):

YCAS 210600Z AUTO 10013KT //// // ////// 28/19 Q1013

Closest aviation forecast (TAF) to Stanthorpe Airport

Forecast is more than 6 hours old.

Closest forecast is RAAF Base Amberley, 70.1 nm (129.9 km) NNE. Retrieved 2020-02-21 00:00 UTC (7 hours ago):

TAF YAMB 202309Z 2100/2118 10008KT 9999 SCT040 FM210400 09012KT 9999 -SHRA SCT050 FM211000 15005KT 9999 BKN040